Time;durP1;ratioP1;P1;durP2;ratioP2;P2;SDS_P1;SDS_P2;PMS_P1;PMS_P2;Temp;Humidity;BMP_temperature;BMP_pressure;BME280_temperature;BME280_humidity;BME280_pressure;Samples;Min_cycle;Max_cycle;Signal;HPM_P1;HPM_P2
2021/05/04 00:02:14;;;;;;;5.27;2.63;;;;;;;;;;5107952;28;20122;-66
2021/05/04 00:04:40;;;;;;;13.90;3.47;;;;;;;;;;5108985;28;20110;-66
2021/05/04 00:07:05;;;;;;;5.00;2.60;;;;;;;;;;5107575;28;20034;-66
2021/05/04 00:09:30;;;;;;;6.27;2.90;;;;;;;;;;5110302;28;20027;-66
2021/05/04 00:11:55;;;;;;;6.00;2.67;;;;;;;;;;5104264;28;20570;-66
2021/05/04 00:14:21;;;;;;;6.90;2.77;;;;;;;;;;5105183;28;20407;-66
2021/05/04 00:16:47;;;;;;;5.30;2.60;;;;;;;;;;5101692;28;20028;-66
2021/05/04 00:19:12;;;;;;;5.80;3.00;;;;;;;;;;5108385;28;20368;-66
2021/05/04 00:21:38;;;;;;;6.93;2.83;;;;;;;;;;5103812;28;20463;-66
2021/05/04 00:24:03;;;;;;;6.33;2.80;;;;;;;;;;5108046;28;20083;-66
2021/05/04 00:26:29;;;;;;;5.07;2.27;;;;;;;;;;5097737;28;20024;-66
2021/05/04 00:28:54;;;;;;;6.10;2.50;;;;;;;;;;5104526;28;20031;-66
2021/05/04 00:31:19;;;;;;;7.10;2.80;;;;;;;;;;5099980;28;20092;-66
2021/05/04 00:33:45;;;;;;;6.43;2.73;;;;;;;;;;5107227;28;20031;-66
2021/05/04 00:36:10;;;;;;;6.13;2.77;;;;;;;;;;5101694;28;20027;-66
2021/05/04 00:38:35;;;;;;;6.30;2.90;;;;;;;;;;5108392;28;20391;-66
2021/05/04 00:41:01;;;;;;;7.10;3.10;;;;;;;;;;5102701;28;20449;-66
2021/05/04 00:43:26;;;;;;;7.73;2.63;;;;;;;;;;5109016;28;20050;-66
2021/05/04 00:45:52;;;;;;;6.27;2.93;;;;;;;;;;5107241;28;20460;-66
2021/05/04 00:48:17;;;;;;;5.00;2.80;;;;;;;;;;5108804;28;20468;-66
2021/05/04 00:50:42;;;;;;;5.57;2.77;;;;;;;;;;5107777;28;20074;-66
2021/05/04 00:53:08;;;;;;;5.47;2.50;;;;;;;;;;5106534;28;20032;-66
2021/05/04 00:55:33;;;;;;;5.27;2.67;;;;;;;;;;5108516;28;20047;-66
2021/05/04 00:58:00;;;;;;;7.67;3.00;;;;;;;;;;5099682;28;20573;-66
2021/05/04 01:00:25;;;;;;;8.73;3.07;;;;;;;;;;5104144;28;20028;-66
2021/05/04 01:02:50;;;;;;;5.73;2.63;;;;;;;;;;5097070;28;20047;-66
2021/05/04 01:05:16;;;;;;;5.87;2.43;;;;;;;;;;5109556;28;20483;-66
2021/05/04 01:07:41;;;;;;;5.93;2.60;;;;;;;;;;5106431;28;20148;-66
2021/05/04 01:10:07;;;;;;;4.97;2.33;;;;;;;;;;5100104;28;20020;-66
2021/05/04 01:12:32;;;;;;;6.60;2.93;;;;;;;;;;5107088;28;20503;-66
2021/05/04 01:14:58;;;;;;;5.57;2.50;;;;;;;;;;5099416;28;20027;-66
2021/05/04 01:17:23;;;;;;;6.93;3.03;;;;;;;;;;5107366;28;20364;-66
2021/05/04 01:19:48;;;;;;;8.03;2.80;;;;;;;;;;5104682;28;20035;-66
2021/05/04 01:22:13;;;;;;;5.43;2.53;;;;;;;;;;5100984;28;20023;-66
2021/05/04 01:24:39;;;;;;;5.33;2.57;;;;;;;;;;5106220;28;20074;-66
2021/05/04 01:27:04;;;;;;;6.17;2.73;;;;;;;;;;5108526;28;20071;-66
2021/05/04 01:29:30;;;;;;;8.33;2.90;;;;;;;;;;5099818;28;20027;-66
2021/05/04 01:31:55;;;;;;;5.40;2.80;;;;;;;;;;5096141;28;20409;-66
2021/05/04 01:34:21;;;;;;;4.83;2.30;;;;;;;;;;5107531;28;20082;-65
2021/05/04 01:36:47;;;;;;;6.20;2.67;;;;;;;;;;5104310;28;20046;-65
2021/05/04 01:39:12;;;;;;;7.53;2.80;;;;;;;;;;5107129;28;20062;-65
2021/05/04 01:41:38;;;;;;;4.87;2.50;;;;;;;;;;5107101;28;20028;-65
2021/05/04 01:44:04;;;;;;;5.77;2.70;;;;;;;;;;5104170;28;20020;-66
2021/05/04 01:46:32;;;;;;;5.27;2.20;;;;;;;;;;5098762;28;20098;-65
2021/05/04 01:49:04;;;;;;;6.67;2.80;;;;;;;;;;5108079;28;20030;-66
2021/05/04 01:51:30;;;;;;;6.10;2.80;;;;;;;;;;5109699;28;20375;-65
2021/05/04 01:53:55;;;;;;;5.60;2.50;;;;;;;;;;5100029;28;20034;-65
2021/05/04 01:56:21;;;;;;;8.17;2.30;;;;;;;;;;5110875;28;20035;-65
2021/05/04 01:58:46;;;;;;;5.87;2.43;;;;;;;;;;5109834;28;20028;-66
2021/05/04 02:01:11;;;;;;;6.03;2.00;;;;;;;;;;5098931;28;20504;-65
2021/05/04 02:03:37;;;;;;;6.23;2.13;;;;;;;;;;5081825;28;20020;-65
2021/05/04 02:06:02;;;;;;;5.40;2.20;;;;;;;;;;5087891;28;20020;-65
2021/05/04 02:08:27;;;;;;;5.03;2.27;;;;;;;;;;5091203;28;20035;-65
2021/05/04 02:10:52;;;;;;;5.63;2.17;;;;;;;;;;5086824;28;20037;-65
2021/05/04 02:13:18;;;;;;;5.30;2.37;;;;;;;;;;5090863;28;20027;-65
2021/05/04 02:15:43;;;;;;;3.73;2.00;;;;;;;;;;5083363;28;20476;-65
2021/05/04 02:18:08;;;;;;;4.80;2.30;;;;;;;;;;5079967;28;20221;-65
2021/05/04 02:20:34;;;;;;;3.80;1.90;;;;;;;;;;5084365;28;20024;-65
2021/05/04 02:22:59;;;;;;;4.43;2.03;;;;;;;;;;5085511;28;20024;-65
2021/05/04 02:25:24;;;;;;;5.63;2.10;;;;;;;;;;5085105;28;20025;-65
2021/05/04 02:27:49;;;;;;;5.03;1.40;;;;;;;;;;5082365;28;20028;-65
2021/05/04 02:30:15;;;;;;;3.43;1.63;;;;;;;;;;5080081;28;20032;-65
2021/05/04 02:32:40;;;;;;;2.90;1.60;;;;;;;;;;5089974;28;20491;-65
2021/05/04 02:35:06;;;;;;;5.67;2.20;;;;;;;;;;5081508;28;20472;-65
2021/05/04 02:37:31;;;;;;;3.90;1.53;;;;;;;;;;5085550;28;20427;-65
2021/05/04 02:39:57;;;;;;;1.30;0.70;;;;;;;;;;5085362;28;20028;-65
2021/05/04 02:42:22;;;;;;;2.43;1.30;;;;;;;;;;5087137;28;20035;-65
2021/05/04 02:44:47;;;;;;;3.03;1.50;;;;;;;;;;5083221;28;20021;-65
2021/05/04 02:47:13;;;;;;;4.33;1.43;;;;;;;;;;5079455;28;20016;-65
2021/05/04 02:49:38;;;;;;;2.67;1.10;;;;;;;;;;5085983;28;20028;-65
2021/05/04 02:52:03;;;;;;;3.07;1.20;;;;;;;;;;5085819;28;20463;-65
2021/05/04 02:54:29;;;;;;;2.40;1.40;;;;;;;;;;5088128;28;20036;-65
2021/05/04 02:56:54;;;;;;;9.73;1.43;;;;;;;;;;5085074;28;20090;-64
2021/05/04 02:59:19;;;;;;;2.03;1.07;;;;;;;;;;5078242;28;20111;-65
2021/05/04 03:01:45;;;;;;;3.28;1.20;;;;;;;;;;5061668;28;685293;-65
2021/05/04 03:04:10;;;;;;;4.90;1.20;;;;;;;;;;5090433;28;20115;-65
2021/05/04 03:06:35;;;;;;;3.93;1.37;;;;;;;;;;5086321;28;20064;-64
2021/05/04 03:09:00;;;;;;;2.07;1.10;;;;;;;;;;5086621;28;20099;-64
2021/05/04 03:11:26;;;;;;;5.70;1.57;;;;;;;;;;5085406;28;20027;-65
2021/05/04 03:13:51;;;;;;;2.70;1.20;;;;;;;;;;5086391;28;20073;-65
2021/05/04 03:16:16;;;;;;;2.93;1.33;;;;;;;;;;5086874;28;20476;-64
2021/05/04 03:18:42;;;;;;;3.53;1.60;;;;;;;;;;5087097;28;20395;-65
2021/05/04 03:21:07;;;;;;;4.10;1.60;;;;;;;;;;5080008;28;20028;-65
2021/05/04 03:23:32;;;;;;;3.20;1.63;;;;;;;;;;5080316;28;20792;-65
2021/05/04 03:25:57;;;;;;;4.40;1.97;;;;;;;;;;5087040;28;20083;-65
2021/05/04 03:28:23;;;;;;;5.70;1.80;;;;;;;;;;5084890;28;20472;-64
2021/05/04 03:30:48;;;;;;;4.17;1.60;;;;;;;;;;5081505;28;20024;-65
2021/05/04 03:33:13;;;;;;;3.87;1.70;;;;;;;;;;5077767;28;20477;-65
2021/05/04 03:35:39;;;;;;;4.73;1.93;;;;;;;;;;5081061;28;20028;-66
2021/05/04 03:38:04;;;;;;;3.33;1.80;;;;;;;;;;5084630;28;20028;-66
2021/05/04 03:40:30;;;;;;;3.93;2.00;;;;;;;;;;5085642;28;20028;-66
2021/05/04 03:42:55;;;;;;;3.43;2.00;;;;;;;;;;5088864;28;20059;-65
2021/05/04 03:45:21;;;;;;;6.73;2.50;;;;;;;;;;5080594;28;20028;-66
2021/05/04 03:47:46;;;;;;;3.83;2.13;;;;;;;;;;5083862;28;20028;-66
2021/05/04 03:50:14;;;;;;;4.27;2.33;;;;;;;;;;5088952;28;20472;-66
2021/05/04 03:52:39;;;;;;;6.90;2.33;;;;;;;;;;5085712;28;20059;-66
2021/05/04 03:55:05;;;;;;;5.53;2.87;;;;;;;;;;5083617;28;20531;-65
2021/05/04 03:57:30;;;;;;;4.57;2.40;;;;;;;;;;5085727;28;20031;-65
2021/05/04 03:59:56;;;;;;;6.47;2.17;;;;;;;;;;5077038;28;20055;-65
2021/05/04 04:02:22;;;;;;;4.40;2.10;;;;;;;;;;5082503;28;20497;-66
2021/05/04 04:04:47;;;;;;;4.47;1.80;;;;;;;;;;5084376;28;20056;-65
2021/05/04 04:07:12;;;;;;;6.07;2.13;;;;;;;;;;5082559;28;20028;-65
2021/05/04 04:09:37;;;;;;;5.77;1.77;;;;;;;;;;5083245;28;20051;-65
2021/05/04 04:12:03;;;;;;;4.97;2.40;;;;;;;;;;5087966;28;20028;-65
2021/05/04 04:14:28;;;;;;;4.43;2.10;;;;;;;;;;5081244;28;20036;-65
2021/05/04 04:16:53;;;;;;;6.13;2.67;;;;;;;;;;5087400;28;20084;-65
2021/05/04 04:19:19;;;;;;;4.40;2.10;;;;;;;;;;5077945;28;20035;-66
2021/05/04 04:21:45;;;;;;;3.70;1.97;;;;;;;;;;5082989;28;20543;-65
2021/05/04 04:24:10;;;;;;;4.17;2.00;;;;;;;;;;5083399;28;20043;-65
2021/05/04 04:26:36;;;;;;;7.03;2.40;;;;;;;;;;5086948;28;20031;-65
2021/05/04 04:29:01;;;;;;;5.23;2.23;;;;;;;;;;5077192;28;20113;-65
2021/05/04 04:31:26;;;;;;;3.63;1.80;;;;;;;;;;5084669;28;20044;-65
2021/05/04 04:33:52;;;;;;;7.17;2.27;;;;;;;;;;5082328;28;20528;-65
2021/05/04 04:36:17;;;;;;;4.57;2.17;;;;;;;;;;5081642;28;20028;-65
2021/05/04 04:38:42;;;;;;;5.23;2.00;;;;;;;;;;5078871;28;20043;-65
2021/05/04 04:41:08;;;;;;;5.20;1.90;;;;;;;;;;5080520;28;20024;-65
2021/05/04 04:43:33;;;;;;;3.50;1.70;;;;;;;;;;5081420;28;20461;-65
2021/05/04 04:45:58;;;;;;;4.63;2.10;;;;;;;;;;5081352;28;20069;-65
2021/05/04 04:48:23;;;;;;;3.47;1.57;;;;;;;;;;5083457;28;20030;-65
2021/05/04 04:50:49;;;;;;;5.33;2.40;;;;;;;;;;5082942;28;20028;-65
2021/05/04 04:53:14;;;;;;;3.60;2.20;;;;;;;;;;5087651;28;20052;-65
2021/05/04 04:55:39;;;;;;;9.00;1.97;;;;;;;;;;5085993;28;20067;-65
2021/05/04 04:58:04;;;;;;;4.07;1.80;;;;;;;;;;5085793;28;20533;-65
2021/05/04 05:00:30;;;;;;;3.87;1.80;;;;;;;;;;5076804;28;20039;-65
2021/05/04 05:02:55;;;;;;;3.00;1.00;;;;;;;;;;5099887;28;20052;-65
2021/05/04 05:05:22;;;;;;;5.67;1.60;;;;;;;;;;5096047;28;20028;-65
2021/05/04 05:07:48;;;;;;;4.23;1.60;;;;;;;;;;5100918;28;20069;-65
2021/05/04 05:10:13;;;;;;;3.30;1.40;;;;;;;;;;5098580;28;20020;-65
2021/05/04 05:12:38;;;;;;;2.30;1.37;;;;;;;;;;5103461;28;20034;-65
2021/05/04 05:15:04;;;;;;;2.87;1.20;;;;;;;;;;5107961;28;20031;-65
2021/05/04 05:17:30;;;;;;;8.00;2.43;;;;;;;;;;5104978;28;20024;-65
2021/05/04 05:19:56;;;;;;;4.93;1.73;;;;;;;;;;5112772;28;20027;-65
2021/05/04 05:22:21;;;;;;;4.67;1.60;;;;;;;;;;5103765;27;20035;-65
2021/05/04 05:24:46;;;;;;;3.60;1.57;;;;;;;;;;5110353;28;20028;-65
2021/05/04 05:27:11;;;;;;;3.07;1.50;;;;;;;;;;5104933;28;20028;-65
2021/05/04 05:29:37;;;;;;;2.63;1.20;;;;;;;;;;5107993;28;20468;-65
2021/05/04 05:32:03;;;;;;;2.63;1.33;;;;;;;;;;5106482;28;20147;-65
2021/05/04 05:34:28;;;;;;;4.90;1.53;;;;;;;;;;5106509;27;20019;-65
2021/05/04 05:36:54;;;;;;;5.87;1.47;;;;;;;;;;5107321;27;20087;-65
2021/05/04 05:39:19;;;;;;;2.73;1.10;;;;;;;;;;5102916;28;20030;-65
2021/05/04 05:41:45;;;;;;;4.63;1.57;;;;;;;;;;5107577;28;20032;-65
2021/05/04 05:44:10;;;;;;;3.37;1.67;;;;;;;;;;5107241;28;20024;-65
2021/05/04 05:46:35;;;;;;;2.80;1.40;;;;;;;;;;5100937;28;20028;-66
2021/05/04 05:49:01;;;;;;;3.10;1.77;;;;;;;;;;5112904;28;20474;-65
2021/05/04 05:51:26;;;;;;;3.23;1.60;;;;;;;;;;5098815;28;20039;-65
2021/05/04 05:53:52;;;;;;;5.77;1.70;;;;;;;;;;5098835;28;20031;-65
2021/05/04 05:56:17;;;;;;;2.73;1.27;;;;;;;;;;5107801;28;20035;-66
2021/05/04 05:58:43;;;;;;;3.13;1.40;;;;;;;;;;5103827;28;20032;-65
2021/05/04 06:01:08;;;;;;;2.00;1.03;;;;;;;;;;5103265;28;20047;-66
2021/05/04 06:03:33;;;;;;;1.97;1.10;;;;;;;;;;5102771;28;20380;-65
2021/05/04 06:05:58;;;;;;;2.90;1.13;;;;;;;;;;5106058;28;20020;-65
2021/05/04 06:08:24;;;;;;;3.47;1.47;;;;;;;;;;5100809;28;20035;-65
2021/05/04 06:10:50;;;;;;;2.83;1.20;;;;;;;;;;5104509;28;20024;-65
2021/05/04 06:13:15;;;;;;;2.57;1.37;;;;;;;;;;5105913;28;20035;-65
2021/05/04 06:15:40;;;;;;;4.73;2.17;;;;;;;;;;5110332;28;20031;-65
2021/05/04 06:18:09;;;;;;;3.67;1.27;;;;;;;;;;5098728;28;20028;-65
2021/05/04 06:20:34;;;;;;;4.63;2.07;;;;;;;;;;5103677;28;20019;-66
2021/05/04 06:23:01;;;;;;;2.87;1.47;;;;;;;;;;5105896;28;20517;-65
2021/05/04 06:25:26;;;;;;;3.80;1.77;;;;;;;;;;5111689;28;20366;-66
2021/05/04 06:27:53;;;;;;;3.37;1.67;;;;;;;;;;5102264;28;20066;-66
2021/05/04 06:30:18;;;;;;;2.90;1.33;;;;;;;;;;5099918;28;20058;-66
2021/05/04 06:32:44;;;;;;;3.63;1.60;;;;;;;;;;5102299;28;20028;-66
2021/05/04 06:35:12;;;;;;;3.80;1.90;;;;;;;;;;5096586;28;20409;-66
2021/05/04 06:37:37;;;;;;;2.90;1.53;;;;;;;;;;5104595;28;20391;-66
2021/05/04 06:40:03;;;;;;;4.10;1.90;;;;;;;;;;5107941;28;20034;-66
2021/05/04 06:42:28;;;;;;;2.83;1.43;;;;;;;;;;5108472;28;20031;-65
2021/05/04 06:44:53;;;;;;;4.27;2.43;;;;;;;;;;5096239;28;20032;-66
2021/05/04 06:47:18;;;;;;;4.50;2.40;;;;;;;;;;5101452;28;20066;-66
2021/05/04 06:49:44;;;;;;;5.73;1.90;;;;;;;;;;5101670;28;20380;-66
2021/05/04 06:52:09;;;;;;;3.80;1.60;;;;;;;;;;5106109;28;20111;-65
2021/05/04 06:54:35;;;;;;;5.30;2.50;;;;;;;;;;5110638;28;20039;-66
2021/05/04 06:57:00;;;;;;;2.73;1.47;;;;;;;;;;5107654;28;20024;-66
2021/05/04 06:59:26;;;;;;;3.50;1.87;;;;;;;;;;5104600;28;20376;-66
2021/05/04 07:01:51;;;;;;;4.13;2.03;;;;;;;;;;5098252;28;20054;-66
2021/05/04 07:04:16;;;;;;;4.43;2.47;;;;;;;;;;5108058;28;20456;-65
2021/05/04 07:06:43;;;;;;;4.43;2.27;;;;;;;;;;5104687;28;20772;-66
2021/05/04 07:09:08;;;;;;;7.33;2.90;;;;;;;;;;5102400;28;20044;-66
2021/05/04 07:11:34;;;;;;;6.80;2.00;;;;;;;;;;5108852;28;20062;-66
2021/05/04 07:14:01;;;;;;;5.10;2.90;;;;;;;;;;5102496;28;20027;-66
2021/05/04 07:16:26;;;;;;;4.23;2.40;;;;;;;;;;5100650;28;20115;-66
2021/05/04 07:18:51;;;;;;;3.57;2.17;;;;;;;;;;5103155;28;20110;-66
2021/05/04 07:21:17;;;;;;;4.50;2.30;;;;;;;;;;5106966;28;20016;-66
2021/05/04 07:23:42;;;;;;;3.90;1.93;;;;;;;;;;5108258;28;20524;-66
2021/05/04 07:26:07;;;;;;;3.53;1.57;;;;;;;;;;5104089;28;20024;-66
2021/05/04 07:28:32;;;;;;;4.33;2.10;;;;;;;;;;5102129;28;20024;-66
2021/05/04 07:30:58;;;;;;;4.30;1.80;;;;;;;;;;5100242;28;20055;-66
2021/05/04 07:33:24;;;;;;;3.70;1.33;;;;;;;;;;5097215;28;20024;-66
2021/05/04 07:35:49;;;;;;;3.40;1.90;;;;;;;;;;5096035;28;20103;-66
2021/05/04 07:38:15;;;;;;;3.50;1.53;;;;;;;;;;5104024;28;20303;-65
2021/05/04 07:40:41;;;;;;;3.23;1.67;;;;;;;;;;5097569;28;20038;-65
2021/05/04 07:43:06;;;;;;;3.50;1.80;;;;;;;;;;5098684;28;20028;-65
2021/05/04 07:45:31;;;;;;;5.03;1.40;;;;;;;;;;5099113;28;20019;-65
2021/05/04 07:47:59;;;;;;;3.13;1.70;;;;;;;;;;5111306;28;20011;-66
2021/05/04 07:50:25;;;;;;;2.33;1.20;;;;;;;;;;5107215;28;20516;-65
2021/05/04 07:52:50;;;;;;;3.30;1.60;;;;;;;;;;5108148;27;20031;-66
2021/05/04 07:55:15;;;;;;;3.23;1.60;;;;;;;;;;5105757;27;20051;-65
2021/05/04 07:57:41;;;;;;;5.40;1.83;;;;;;;;;;5104763;28;20108;-65
2021/05/04 08:00:06;;;;;;;3.20;1.60;;;;;;;;;;5094009;28;20016;-65
2021/05/04 08:02:32;;;;;;;2.70;1.50;;;;;;;;;;5104503;28;20460;-65
2021/05/04 08:04:57;;;;;;;2.87;1.27;;;;;;;;;;5109667;28;20055;-64
2021/05/04 08:07:22;;;;;;;3.97;1.60;;;;;;;;;;5100647;28;20028;-65
2021/05/04 08:09:47;;;;;;;4.40;1.10;;;;;;;;;;5105595;28;20012;-65
2021/05/04 08:12:13;;;;;;;3.07;1.60;;;;;;;;;;5101698;28;20483;-65
2021/05/04 08:14:38;;;;;;;4.13;1.30;;;;;;;;;;5103767;28;20027;-65
2021/05/04 08:17:04;;;;;;;2.57;1.30;;;;;;;;;;5101072;28;20040;-65
2021/05/04 08:19:29;;;;;;;2.17;1.17;;;;;;;;;;5109640;28;20076;-65
2021/05/04 08:21:55;;;;;;;3.00;1.43;;;;;;;;;;5110598;28;20046;-65
2021/05/04 08:24:20;;;;;;;4.23;1.50;;;;;;;;;;5110844;28;20086;-64
2021/05/04 08:26:45;;;;;;;3.10;1.60;;;;;;;;;;5103028;28;20046;-65
2021/05/04 08:29:11;;;;;;;3.67;1.77;;;;;;;;;;5107753;28;20019;-65
2021/05/04 08:31:36;;;;;;;4.87;1.43;;;;;;;;;;5106326;28;20130;-65
2021/05/04 08:34:02;;;;;;;2.87;1.50;;;;;;;;;;5110989;28;20024;-65
2021/05/04 08:36:28;;;;;;;3.40;1.30;;;;;;;;;;5103880;28;20141;-65
2021/05/04 08:38:53;;;;;;;2.77;1.50;;;;;;;;;;5109929;28;20497;-64
2021/05/04 08:41:18;;;;;;;3.70;1.90;;;;;;;;;;5106448;28;20019;-65
2021/05/04 08:43:45;;;;;;;4.97;1.57;;;;;;;;;;5104541;28;20107;-65
2021/05/04 08:46:11;;;;;;;3.43;1.73;;;;;;;;;;5101244;28;20023;-65
2021/05/04 08:48:37;;;;;;;2.70;1.60;;;;;;;;;;5108002;28;20524;-65
2021/05/04 08:51:03;;;;;;;4.30;1.77;;;;;;;;;;5106776;28;20032;-65
2021/05/04 08:53:28;;;;;;;2.30;1.30;;;;;;;;;;5108056;28;20028;-65
2021/05/04 08:55:53;;;;;;;5.00;1.80;;;;;;;;;;5106589;28;20028;-66
2021/05/04 08:58:20;;;;;;;3.43;1.60;;;;;;;;;;5092413;28;20182;-66
2021/05/04 09:00:46;;;;;;;3.60;1.50;;;;;;;;;;5110001;28;20028;-66
2021/05/04 09:06:05;;;;;;;3.87;1.80;;;;;;;;;;5109123;28;20024;-66
2021/05/04 09:12:05;;;;;;;2.50;1.20;;;;;;;;;;5095100;28;20035;-66
2021/05/04 09:16:56;;;;;;;2.20;1.10;;;;;;;;;;5110060;28;20106;-66
2021/05/04 09:21:53;;;;;;;2.92;1.40;;;;;;;;;;5099411;28;20028;-66
2021/05/04 09:24:20;;;;;;;2.40;1.37;;;;;;;;;;5108149;28;20050;-66
2021/05/04 09:26:46;;;;;;;3.93;1.20;;;;;;;;;;5102228;28;20020;-66
2021/05/04 09:29:12;;;;;;;1.20;0.70;;;;;;;;;;5107802;28;20564;-66
2021/05/04 09:31:38;;;;;;;3.30;0.97;;;;;;;;;;5104091;28;20031;-66
2021/05/04 09:34:11;;;;;;;1.40;0.60;;;;;;;;;;5107562;28;20011;-65
2021/05/04 09:36:42;;;;;;;1.83;0.80;;;;;;;;;;5101826;28;20129;-66
2021/05/04 09:39:09;;;;;;;1.90;0.80;;;;;;;;;;5103759;28;20024;-66
2021/05/04 09:41:34;;;;;;;1.53;0.77;;;;;;;;;;5094890;28;20031;-66
2021/05/04 09:44:00;;;;;;;2.13;0.70;;;;;;;;;;5097715;28;20459;-66
2021/05/04 09:46:44;;;;;;;1.60;0.80;;;;;;;;;;5105380;28;20104;-66
2021/05/04 09:49:25;;;;;;;0.83;0.30;;;;;;;;;;5109284;28;20459;-66
2021/05/04 09:51:51;;;;;;;3.87;0.80;;;;;;;;;;5100275;28;20031;-66
2021/05/04 09:54:23;;;;;;;1.40;0.60;;;;;;;;;;5110283;28;20024;-65
2021/05/04 09:56:49;;;;;;;1.23;0.70;;;;;;;;;;5106134;28;20016;-65
2021/05/04 09:59:14;;;;;;;2.53;0.73;;;;;;;;;;5114317;28;20023;-66
2021/05/04 10:01:39;;;;;;;3.07;0.83;;;;;;;;;;5108774;28;20492;-66
2021/05/04 10:04:05;;;;;;;2.10;0.70;;;;;;;;;;5113898;28;20018;-66
2021/05/04 10:06:31;;;;;;;3.77;0.70;;;;;;;;;;5106924;28;20016;-66
2021/05/04 10:08:57;;;;;;;2.07;0.70;;;;;;;;;;5113436;28;20076;-65
2021/05/04 10:11:22;;;;;;;1.60;0.63;;;;;;;;;;5101324;28;20376;-66
2021/05/04 10:13:52;;;;;;;1.20;0.60;;;;;;;;;;5109450;28;20020;-66
2021/05/04 10:16:21;;;;;;;1.67;0.70;;;;;;;;;;5112981;28;20023;-66
2021/05/04 10:18:47;;;;;;;1.17;0.70;;;;;;;;;;5113698;28;20507;-66
2021/05/04 10:21:12;;;;;;;1.87;0.90;;;;;;;;;;5108808;28;20106;-66
2021/05/04 10:23:39;;;;;;;3.30;1.40;;;;;;;;;;5113708;28;20055;-66
2021/05/04 10:26:06;;;;;;;2.17;0.80;;;;;;;;;;5102168;28;20464;-65
2021/05/04 10:28:42;;;;;;;3.67;1.10;;;;;;;;;;5107243;28;20022;-65
2021/05/04 10:31:09;;;;;;;2.60;0.90;;;;;;;;;;5099027;28;20019;-66
2021/05/04 10:33:37;;;;;;;2.10;0.80;;;;;;;;;;5108073;28;20072;-66
2021/05/04 10:36:03;;;;;;;2.43;1.00;;;;;;;;;;5107525;28;20039;-67
2021/05/04 10:38:47;;;;;;;1.27;0.50;;;;;;;;;;5098716;28;20016;-67
2021/05/04 10:41:12;;;;;;;2.67;0.70;;;;;;;;;;5108264;28;20027;-66
2021/05/04 10:43:38;;;;;;;1.67;0.70;;;;;;;;;;5103253;28;20115;-66
2021/05/04 10:46:08;;;;;;;2.93;0.87;;;;;;;;;;5103825;28;20020;-66
2021/05/04 10:48:41;;;;;;;2.83;1.00;;;;;;;;;;5112984;28;20016;-66
2021/05/04 10:51:08;;;;;;;2.90;1.08;;;;;;;;;;5107646;28;20130;-66
2021/05/04 10:53:49;;;;;;;2.20;1.00;;;;;;;;;;5111087;28;20054;-66
2021/05/04 10:56:15;;;;;;;4.03;1.10;;;;;;;;;;5108213;28;20144;-66
2021/05/04 10:58:48;;;;;;;2.77;1.20;;;;;;;;;;5112941;28;20401;-66
2021/05/04 11:01:18;;;;;;;3.27;1.40;;;;;;;;;;5109658;28;20036;-66
2021/05/04 11:03:50;;;;;;;3.07;1.30;;;;;;;;;;5103459;28;20023;-66
2021/05/04 11:06:24;;;;;;;4.50;1.60;;;;;;;;;;5105360;28;20030;-66
2021/05/04 11:08:49;;;;;;;4.27;1.47;;;;;;;;;;5097384;28;20027;-66
2021/05/04 11:11:29;;;;;;;3.53;1.47;;;;;;;;;;5105706;28;20028;-67
2021/05/04 11:13:57;;;;;;;5.57;1.43;;;;;;;;;;5096061;28;20476;-67
2021/05/04 11:16:33;;;;;;;2.60;1.30;;;;;;;;;;5104757;28;20024;-67
2021/05/04 11:19:09;;;;;;;3.93;1.13;;;;;;;;;;5112346;28;20020;-66
2021/05/04 11:21:37;;;;;;;2.70;0.90;;;;;;;;;;5102895;28;20028;-66
2021/05/04 11:24:04;;;;;;;2.47;0.80;;;;;;;;;;5104664;28;20049;-66
2021/05/04 11:27:07;;;;;;;1.97;0.80;;;;;;;;;;5107131;28;20031;-66
2021/05/04 11:29:33;;;;;;;2.03;0.80;;;;;;;;;;5015952;28;20013;-66
2021/05/04 11:32:16;;;;;;;1.40;0.80;;;;;;;;;;5011047;28;20028;-66
2021/05/04 11:34:45;;;;;;;3.70;0.90;;;;;;;;;;5064687;28;20528;-66
2021/05/04 11:37:12;;;;;;;1.83;0.80;;;;;;;;;;5110846;28;20031;-66
2021/05/04 11:39:49;;;;;;;2.10;0.83;;;;;;;;;;5099395;28;20379;-66
2021/05/04 11:42:14;;;;;;;3.00;1.00;;;;;;;;;;5100225;28;20383;-66
2021/05/04 11:44:39;;;;;;;2.90;1.00;;;;;;;;;;5102540;28;20019;-66
2021/05/04 11:47:21;;;;;;;2.53;0.70;;;;;;;;;;5103108;28;20024;-66
2021/05/04 11:49:47;;;;;;;2.28;0.85;;;;;;;;;;5110007;28;20491;-66
2021/05/04 11:52:14;;;;;;;2.83;1.00;;;;;;;;;;5105994;28;20050;-65
2021/05/04 11:54:39;;;;;;;1.23;0.67;;;;;;;;;;5110706;28;20080;-65
2021/05/04 11:57:05;;;;;;;6.10;1.07;;;;;;;;;;5103562;28;20024;-65
2021/05/04 11:59:30;;;;;;;1.47;0.60;;;;;;;;;;5110512;28;20042;-65
2021/05/04 12:01:55;;;;;;;1.80;0.80;;;;;;;;;;5104528;28;20050;-65
2021/05/04 12:04:41;;;;;;;2.33;0.60;;;;;;;;;;5111776;28;20031;-66
2021/05/04 12:07:06;;;;;;;3.17;0.70;;;;;;;;;;5094950;28;20024;-65
2021/05/04 12:09:33;;;;;;;1.53;0.80;;;;;;;;;;5111537;28;20363;-66
2021/05/04 12:12:08;;;;;;;2.43;1.03;;;;;;;;;;5101644;28;20103;-66
2021/05/04 12:14:53;;;;;;;4.17;1.13;;;;;;;;;;5094375;28;20024;-65
2021/05/04 12:17:23;;;;;;;1.53;0.83;;;;;;;;;;5106309;28;20023;-65
2021/05/04 12:19:48;;;;;;;1.10;0.50;;;;;;;;;;5111703;28;20412;-65
2021/05/04 12:22:14;;;;;;;5.70;1.67;;;;;;;;;;5103314;28;20024;-65
2021/05/04 12:24:39;;;;;;;2.83;1.20;;;;;;;;;;5108102;28;20349;-65
2021/05/04 12:27:05;;;;;;;3.73;0.97;;;;;;;;;;5100342;28;20055;-66
2021/05/04 12:29:30;;;;;;;0.97;0.50;;;;;;;;;;5107589;28;20076;-66
2021/05/04 12:31:55;;;;;;;1.53;0.90;;;;;;;;;;5105289;28;20496;-66
2021/05/04 12:34:24;;;;;;;5.60;1.00;;;;;;;;;;5107883;28;20020;-66
2021/05/04 12:36:53;;;;;;;2.10;1.10;;;;;;;;;;5110421;28;20454;-65
2021/05/04 12:39:23;;;;;;;3.03;1.20;;;;;;;;;;5108133;28;20016;-65
2021/05/04 12:41:50;;;;;;;2.93;1.10;;;;;;;;;;5110588;28;20031;-65
2021/05/04 12:44:23;;;;;;;2.47;0.90;;;;;;;;;;5100573;28;20043;-65
2021/05/04 12:47:00;;;;;;;2.70;1.07;;;;;;;;;;5101496;28;20101;-65
2021/05/04 12:49:32;;;;;;;4.33;1.40;;;;;;;;;;5106200;28;20124;-65
2021/05/04 12:51:57;;;;;;;0.98;0.73;;;;;;;;;;5099057;28;20024;-65
2021/05/04 12:54:23;;;;;;;2.10;0.77;;;;;;;;;;5103694;28;20490;-65
2021/05/04 12:56:49;;;;;;;1.60;0.70;;;;;;;;;;5095299;28;20024;-65
2021/05/04 12:59:15;;;;;;;2.10;0.80;;;;;;;;;;5110645;28;20038;-65
2021/05/04 13:01:50;;;;;;;5.00;1.40;;;;;;;;;;5095934;28;20040;-65
2021/05/04 13:04:26;;;;;;;1.13;0.77;;;;;;;;;;5082685;28;20020;-65
2021/05/04 13:07:00;;;;;;;2.47;1.00;;;;;;;;;;5083138;28;20024;-65
2021/05/04 13:09:46;;;;;;;1.67;0.77;;;;;;;;;;5090481;28;20024;-65
2021/05/04 13:12:21;;;;;;;2.40;0.73;;;;;;;;;;5084090;28;20468;-65
2021/05/04 13:32:22;;;;;;;1.50;0.65;;;;;;;;;;5039201;28;20112;-65
2021/05/04 13:34:57;;;;;;;1.90;1.03;;;;;;;;;;5047266;28;20029;-65
2021/05/04 13:37:28;;;;;;;3.00;0.90;;;;;;;;;;5061014;28;20426;-65
2021/05/04 13:47:48;;;;;;;1.90;0.80;;;;;;;;;;5077648;28;20511;-65
2021/05/04 13:50:15;;;;;;;1.47;0.80;;;;;;;;;;5082663;28;20044;-65
2021/05/04 13:52:40;;;;;;;1.30;0.70;;;;;;;;;;5081932;28;20032;-65
2021/05/04 13:55:06;;;;;;;3.40;1.27;;;;;;;;;;5084393;28;20025;-65
2021/05/04 13:57:33;;;;;;;2.13;0.70;;;;;;;;;;5088377;28;20465;-65
2021/05/04 13:59:59;;;;;;;1.10;0.60;;;;;;;;;;5075510;28;20020;-65
2021/05/04 14:28:45;;;;;;;2.83;1.00;;;;;;;;;;5112717;28;20035;-65
2021/05/04 14:31:10;;;;;;;3.60;0.97;;;;;;;;;;5112602;28;20460;-66
2021/05/04 14:33:35;;;;;;;2.03;0.90;;;;;;;;;;5113474;28;20077;-66
2021/05/04 14:36:19;;;;;;;2.47;1.07;;;;;;;;;;5110489;28;20016;-65
2021/05/04 14:38:51;;;;;;;2.43;1.07;;;;;;;;;;5111143;28;20020;-65
2021/05/04 14:47:33;;;;;;;2.03;1.00;;;;;;;;;;5110219;28;20016;-65
2021/05/04 14:59:52;;;;;;;5.03;1.30;;;;;;;;;;5103774;28;20378;-65
2021/05/04 15:02:17;;;;;;;4.03;1.30;;;;;;;;;;5110556;28;20069;-65
2021/05/04 15:04:45;;;;;;;2.33;1.00;;;;;;;;;;5101129;28;20017;-65
2021/05/04 15:07:10;;;;;;;3.23;1.17;;;;;;;;;;5097932;28;20020;-65
2021/05/04 15:09:36;;;;;;;3.60;1.53;;;;;;;;;;5081732;28;20523;-65
2021/05/04 15:12:02;;;;;;;1.17;0.70;;;;;;;;;;5089383;28;20016;-65
2021/05/04 15:14:38;;;;;;;2.30;1.20;;;;;;;;;;5098352;28;20020;-65
2021/05/04 15:17:12;;;;;;;4.20;1.20;;;;;;;;;;5095042;28;20044;-65
2021/05/04 15:22:21;;;;;;;5.07;1.10;;;;;;;;;;5105731;28;20076;-65
2021/05/04 15:24:47;;;;;;;1.30;0.80;;;;;;;;;;5105949;28;20023;-65
2021/05/04 15:27:13;;;;;;;3.77;1.23;;;;;;;;;;5111397;28;20019;-65
2021/05/04 15:29:38;;;;;;;2.43;1.13;;;;;;;;;;5106634;28;20030;-65
2021/05/04 15:32:12;;;;;;;2.50;1.00;;;;;;;;;;5110355;28;20511;-65
2021/05/04 15:34:37;;;;;;;2.23;0.90;;;;;;;;;;5105404;28;20028;-65
2021/05/04 15:37:03;;;;;;;2.50;0.77;;;;;;;;;;5105835;28;20019;-65
2021/05/04 15:39:28;;;;;;;4.53;1.17;;;;;;;;;;5093819;28;20528;-65
2021/05/04 15:41:54;;;;;;;2.70;1.03;;;;;;;;;;5091478;28;20039;-65
2021/05/04 15:44:21;;;;;;;3.13;1.13;;;;;;;;;;5098192;28;20012;-65
2021/05/04 15:46:52;;;;;;;2.67;1.10;;;;;;;;;;5101493;28;20047;-65
2021/05/04 15:49:34;;;;;;;2.00;1.00;;;;;;;;;;5097184;28;20025;-65
2021/05/04 16:10:23;;;;;;;4.10;0.80;;;;;;;;;;5097953;28;20437;-65
2021/05/04 16:12:48;;;;;;;2.87;1.10;;;;;;;;;;5094588;28;20031;-65
2021/05/04 16:15:13;;;;;;;1.27;0.70;;;;;;;;;;5106390;28;20027;-65
2021/05/04 16:17:39;;;;;;;4.07;0.60;;;;;;;;;;5102265;28;20478;-65
2021/05/04 16:20:14;;;;;;;0.50;0.50;;;;;;;;;;5098821;28;20057;-65
2021/05/04 16:22:44;;;;;;;0.93;0.60;;;;;;;;;;5098392;28;20479;-65